createdAt,value
2018-05-16T00:01:51.849Z,100305.45
2018-05-16T00:04:19.257Z,100308.41
2018-05-16T00:06:48.197Z,100313.38
2018-05-16T00:09:15.624Z,100312.98
2018-05-16T00:11:44.125Z,100308.60
2018-05-16T00:14:11.528Z,100310.83
2018-05-16T00:16:40.293Z,100307.29
2018-05-16T00:19:07.708Z,100307.33
2018-05-16T00:21:35.124Z,100306.31
2018-05-16T00:24:02.576Z,100308.91
2018-05-16T00:26:30.017Z,100315.30
2018-05-16T00:28:57.428Z,100309.59
2018-05-16T00:31:25.099Z,100306.41
2018-05-16T00:33:52.526Z,100310.36
2018-05-16T00:36:19.932Z,100303.60
2018-05-16T00:38:47.353Z,100305.25
2018-05-16T00:41:15.515Z,100299.95
2018-05-16T00:43:42.933Z,100303.52
2018-05-16T00:46:10.331Z,100298.78
2018-05-16T00:48:37.753Z,100299.77
2018-05-16T00:51:16.860Z,100299.58
2018-05-16T00:53:46.157Z,100295.02
2018-05-16T00:56:13.560Z,100293.04
2018-05-16T00:58:40.960Z,100295.02
2018-05-16T01:01:08.382Z,100299.21
2018-05-16T01:03:35.775Z,100291.66
2018-05-16T01:06:03.190Z,100298.56
2018-05-16T01:08:30.597Z,100294.94
2018-05-16T01:10:57.995Z,100296.22
2018-05-16T01:13:25.421Z,100296.77
2018-05-16T01:15:52.819Z,100297.50
2018-05-16T01:18:20.228Z,100301.44
2018-05-16T01:20:47.648Z,100301.04
2018-05-16T01:23:15.052Z,100303.01
2018-05-16T01:25:42.457Z,100300.20
2018-05-16T01:28:09.887Z,100303.14
2018-05-16T01:30:37.290Z,100292.59
2018-05-16T01:33:04.692Z,100297.33
2018-05-16T01:35:32.112Z,100295.72
2018-05-16T01:37:59.528Z,100296.48
2018-05-16T01:40:26.939Z,100300.86
2018-05-16T01:42:54.364Z,100300.06
2018-05-16T01:45:21.797Z,100308.16
2018-05-16T01:47:49.236Z,100304.39
2018-05-16T01:50:16.649Z,100310.49
2018-05-16T01:52:44.069Z,100309.50
2018-05-16T01:55:11.800Z,100302.52
2018-05-16T01:57:40.156Z,100303.50
2018-05-16T02:00:07.635Z,100306.05
2018-05-16T02:02:35.064Z,100308.60
2018-05-16T02:05:02.505Z,100309.75
2018-05-16T02:07:29.925Z,100307.92
2018-05-16T02:09:57.376Z,100308.50
2018-05-16T02:12:24.839Z,100294.93
2018-05-16T02:14:52.251Z,100307.82
2018-05-16T02:17:20.057Z,100307.95
2018-05-16T02:19:47.471Z,100301.59
2018-05-16T02:22:14.920Z,100299.17
2018-05-16T02:24:42.351Z,100298.72
2018-05-16T02:27:09.796Z,100305.64
2018-05-16T02:29:37.232Z,100304.84
2018-05-16T02:32:04.653Z,100303.06
2018-05-16T02:34:32.541Z,100302.70
2018-05-16T02:36:59.952Z,100307.03
2018-05-16T02:39:27.372Z,100307.22
2018-05-16T02:41:54.795Z,100311.59
2018-05-16T02:44:22.240Z,100315.75
2018-05-16T02:46:49.929Z,100307.83
2018-05-16T02:49:17.355Z,100311.78
2018-05-16T02:51:44.759Z,100319.32
2018-05-16T02:54:12.719Z,100320.45
2018-05-16T02:56:40.149Z,100325.36
2018-05-16T02:59:07.624Z,100318.59
2018-05-16T03:01:35.028Z,100319.96
2018-05-16T03:04:02.456Z,100324.89
2018-05-16T03:06:29.884Z,100326.50
2018-05-16T03:08:57.858Z,100322.16
2018-05-16T03:11:25.313Z,100318.77
2018-05-16T03:13:52.721Z,100325.11
2018-05-16T03:16:20.181Z,100326.62
2018-05-16T03:18:47.596Z,100321.81
2018-05-16T03:21:15.490Z,100318.36
2018-05-16T03:23:42.896Z,100320.69
2018-05-16T03:26:10.325Z,100324.44
2018-05-16T03:28:37.731Z,100327.33
2018-05-16T03:31:05.337Z,100321.16
2018-05-16T03:33:32.739Z,100322.88
2018-05-16T03:36:00.205Z,100323.03
2018-05-16T03:38:27.629Z,100333.54
2018-05-16T03:40:55.054Z,100333.88
2018-05-16T03:43:22.460Z,100336.02
2018-05-16T03:45:49.915Z,100343.34
2018-05-16T03:48:17.323Z,100336.77
2018-05-16T03:50:45.681Z,100340.53
2018-05-16T03:53:13.137Z,100336.61
2018-05-16T03:55:40.552Z,100334.06
2018-05-16T03:58:20.809Z,100337.35
2018-05-16T04:04:13.076Z,100333.28
2018-05-16T04:06:40.523Z,100333.13
2018-05-16T04:09:07.978Z,100332.47
2018-05-16T04:11:35.397Z,100338.95
2018-05-16T04:14:02.826Z,100340.58
2018-05-16T04:16:30.235Z,100341.58
2018-05-16T04:18:57.980Z,100340.33
2018-05-16T04:21:25.424Z,100341.85
2018-05-16T04:23:52.839Z,100340.20
2018-05-16T04:26:20.261Z,100335.58
2018-05-16T04:28:47.697Z,100329.52
2018-05-16T04:31:15.149Z,100343.20
2018-05-16T04:33:42.572Z,100334.31
2018-05-16T04:36:10.028Z,100337.36
2018-05-16T04:38:37.456Z,100343.78
2018-05-16T04:41:04.887Z,100339.60
2018-05-16T04:43:32.335Z,100340.45
2018-05-16T04:45:59.749Z,100337.20
2018-05-16T04:48:27.184Z,100335.19
2018-05-16T04:50:54.596Z,100344.20
2018-05-16T04:53:22.032Z,100347.32
2018-05-16T04:55:49.463Z,100354.84
2018-05-16T04:58:16.880Z,100352.87
2018-05-16T05:00:44.312Z,100365.69
2018-05-16T05:03:11.730Z,100360.53
2018-05-16T05:05:39.148Z,100361.66
2018-05-16T05:08:06.578Z,100354.91
2018-05-16T05:10:33.983Z,100361.95
2018-05-16T05:13:01.416Z,100362.34
2018-05-16T05:15:28.839Z,100370.61
2018-05-16T05:17:56.301Z,100369.25
2018-05-16T05:20:24.721Z,100366.72
2018-05-16T05:22:52.134Z,100372.03
2018-05-16T05:25:19.532Z,100371.52
2018-05-16T05:27:46.952Z,100376.51
2018-05-16T05:30:14.428Z,100367.44
2018-05-16T05:32:41.779Z,100368.12
2018-05-16T05:35:09.208Z,100366.45
2018-05-16T05:37:36.623Z,100363.69
2018-05-16T05:40:04.684Z,100369.45
2018-05-16T05:42:32.165Z,100378.95
2018-05-16T05:44:59.584Z,100376.53
2018-05-16T05:47:27.024Z,100374.03
2018-05-16T05:49:54.440Z,100375.72
2018-05-16T05:52:21.843Z,100376.84
2018-05-16T05:54:49.264Z,100368.70
2018-05-16T05:57:16.675Z,100367.98
2018-05-16T05:59:44.110Z,100368.67
2018-05-16T06:02:11.519Z,100363.07
2018-05-16T06:04:39.718Z,100371.67
2018-05-16T06:07:07.297Z,100373.17
2018-05-16T06:09:34.744Z,100371.09
2018-05-16T06:12:02.422Z,100368.97
2018-05-16T06:14:29.992Z,100374.14
2018-05-16T06:16:57.552Z,100369.55
2018-05-16T06:19:25.321Z,100375.09
2018-05-16T06:21:52.778Z,100379.59
2018-05-16T06:24:21.143Z,100373.45
2018-05-16T06:26:49.849Z,100371.02
2018-05-16T06:29:18.691Z,100377.73
2018-05-16T06:31:47.206Z,100381.17
2018-05-16T06:34:14.746Z,100375.61
2018-05-16T06:36:42.218Z,100380.39
2018-05-16T06:39:10.291Z,100381.41
2018-05-16T06:41:37.672Z,100390.56
2018-05-16T06:44:05.108Z,100396.16
2018-05-16T06:46:34.909Z,100400.92
2018-05-16T06:49:04.355Z,100399.13
2018-05-16T06:51:33.285Z,100404.09
2018-05-16T06:54:00.988Z,100410.45
2018-05-16T06:56:32.451Z,100407.14
2018-05-16T06:58:59.887Z,100404.81
2018-05-16T07:01:27.828Z,100402.95
2018-05-16T07:03:55.254Z,100406.16
2018-05-16T07:06:22.714Z,100407.39
2018-05-16T07:08:50.299Z,100413.55
2018-05-16T07:11:17.704Z,100418.55
2018-05-16T07:13:45.599Z,100420.77
2018-05-16T07:16:13.184Z,100408.68
2018-05-16T07:18:44.003Z,100412.47
2018-05-16T07:21:11.459Z,100411.06
2018-05-16T07:23:39.191Z,100406.10
2018-05-16T07:26:07.330Z,100414.08
2018-05-16T07:28:35.243Z,100420.03
2018-05-16T07:31:04.736Z,100425.61
2018-05-16T07:33:32.153Z,100423.43
2018-05-16T07:36:09.702Z,100411.06
2018-05-16T07:38:37.156Z,100398.53
2018-05-16T07:41:04.696Z,100397.72
2018-05-16T07:43:32.057Z,100398.94
2018-05-16T07:45:59.472Z,100396.94
2018-05-16T07:48:26.907Z,100404.91
2018-05-16T07:50:54.324Z,100413.86
2018-05-16T07:53:21.733Z,100424.82
2018-05-16T07:55:49.153Z,100432.39
2018-05-16T07:58:16.559Z,100437.72
2018-05-16T08:00:43.987Z,100454.88
2018-05-16T08:03:11.492Z,100456.27
2018-05-16T08:05:38.818Z,100460.66
2018-05-16T08:08:06.287Z,100457.88
2018-05-16T08:10:33.777Z,100456.70
2018-05-16T08:13:02.162Z,100457.48
2018-05-16T08:15:29.572Z,100455.84
2018-05-16T08:17:56.983Z,100450.54
2018-05-16T08:20:24.416Z,100441.53
2018-05-16T08:22:51.824Z,100441.53
2018-05-16T08:25:19.244Z,100444.78
2018-05-16T08:27:46.658Z,100449.52
2018-05-16T08:30:14.095Z,100443.52
2018-05-16T08:32:41.524Z,100448.73
2018-05-16T08:35:08.932Z,100449.23
2018-05-16T08:37:36.365Z,100452.28
2018-05-16T08:40:04.385Z,100449.83
2018-05-16T08:42:31.803Z,100450.23
2018-05-16T08:44:59.224Z,100441.20
2018-05-16T08:47:26.626Z,100442.22
2018-05-16T08:49:54.066Z,100449.76
2018-05-16T08:52:21.504Z,100449.89
2018-05-16T08:54:48.944Z,100451.80
2018-05-16T08:57:16.368Z,100439.98
2018-05-16T08:59:43.775Z,100448.81
2018-05-16T09:02:11.196Z,100443.37
2018-05-16T09:04:38.618Z,100438.64
2018-05-16T09:07:06.060Z,100436.94
2018-05-16T09:09:33.474Z,100440.17
2018-05-16T09:12:00.940Z,100439.67
2018-05-16T09:14:28.348Z,100453.83
2018-05-16T09:16:55.757Z,100453.44
2018-05-16T09:19:23.180Z,100447.93
2018-05-16T09:21:50.608Z,100461.06
2018-05-16T09:24:18.078Z,100456.73
2018-05-16T09:26:45.483Z,100453.77
2018-05-16T09:29:12.892Z,100453.30
2018-05-16T09:31:40.659Z,100454.73
2018-05-16T09:34:08.072Z,100452.05
2018-05-16T09:36:35.500Z,100449.12
2018-05-16T09:39:02.932Z,100452.69
2018-05-16T09:41:30.333Z,100449.98
2018-05-16T09:43:57.765Z,100439.98
2018-05-16T09:46:25.170Z,100428.79
2018-05-16T09:48:52.889Z,100427.93
2018-05-16T09:51:20.320Z,100427.30
2018-05-16T09:53:47.731Z,100430.91
2018-05-16T09:56:15.165Z,100428.02
2018-05-16T09:58:42.603Z,100434.33
2018-05-16T10:01:10.013Z,100435.07
2018-05-16T10:03:37.447Z,100439.52
2018-05-16T10:06:04.887Z,100451.60
2018-05-16T10:08:32.316Z,100456.58
2018-05-16T10:10:59.755Z,100456.66
2018-05-16T10:13:27.167Z,100447.88
2018-05-16T10:15:55.532Z,100449.50
2018-05-16T10:18:23.016Z,100451.12
2018-05-16T10:20:50.469Z,100457.95
2018-05-16T10:23:17.896Z,100461.25
2018-05-16T10:25:46.039Z,100470.06
2018-05-16T10:28:13.448Z,100465.36
2018-05-16T10:30:40.887Z,100466.23
2018-05-16T10:33:08.370Z,100478.39
2018-05-16T10:35:35.799Z,100479.39
2018-05-16T10:38:03.250Z,100489.23
2018-05-16T10:40:30.968Z,100495.62
2018-05-16T10:42:58.425Z,100500.41
2018-05-16T10:45:25.839Z,100495.19
2018-05-16T10:47:53.271Z,100493.98
2018-05-16T10:50:20.688Z,100483.82
2018-05-16T10:52:48.136Z,100475.28
2018-05-16T10:55:17.114Z,100480.94
2018-05-16T10:57:44.532Z,100479.16
2018-05-16T11:00:15.033Z,100464.22
2018-05-16T11:02:42.517Z,100457.41
2018-05-16T11:05:10.420Z,100453.22
2018-05-16T11:07:38.206Z,100449.05
2018-05-16T11:10:07.648Z,100453.05
2018-05-16T11:12:37.383Z,100444.27
2018-05-16T11:15:04.835Z,100449.09
2018-05-16T11:17:33.269Z,100446.30
2018-05-16T11:20:02.881Z,100446.89
2018-05-16T11:22:31.025Z,100453.66
2018-05-16T11:24:58.660Z,100456.45
2018-05-16T11:27:27.360Z,100459.26
2018-05-16T11:29:55.253Z,100463.47
2018-05-16T11:32:23.663Z,100466.88
2018-05-16T11:34:51.364Z,100463.72
2018-05-16T11:37:20.267Z,100480.25
2018-05-16T11:39:47.758Z,100491.61
2018-05-16T11:42:15.185Z,100494.97
2018-05-16T11:44:42.676Z,100489.55
2018-05-16T11:47:11.280Z,100479.49
2018-05-16T11:49:39.290Z,100478.36
2018-05-16T11:52:06.699Z,100478.22
2018-05-16T11:54:34.435Z,100476.11
2018-05-16T11:57:01.852Z,100477.16
2018-05-16T11:59:29.280Z,100472.75
2018-05-16T12:01:56.708Z,100466.03
2018-05-16T12:04:24.148Z,100466.72
2018-05-16T12:06:52.537Z,100468.22
2018-05-16T12:09:19.969Z,100460.81
2018-05-16T12:11:47.382Z,100466.02
2018-05-16T12:14:15.102Z,100477.75
2018-05-16T12:16:42.610Z,100475.86
2018-05-16T12:19:10.991Z,100485.67
2018-05-16T12:21:38.429Z,100481.34
2018-05-16T12:24:05.780Z,100490.14
2018-05-16T12:26:33.242Z,100483.06
2018-05-16T12:29:00.681Z,100478.86
2018-05-16T12:31:28.092Z,100459.21
2018-05-16T12:33:55.889Z,100449.12
2018-05-16T12:36:23.301Z,100434.03
2018-05-16T12:38:50.732Z,100437.00
2018-05-16T12:41:18.184Z,100420.97
2018-05-16T12:43:45.616Z,100417.89
2018-05-16T12:46:13.042Z,100416.44
2018-05-16T12:48:40.472Z,100411.13
2018-05-16T12:51:07.879Z,100418.28
2018-05-16T12:53:35.337Z,100416.34
2018-05-16T12:56:08.351Z,100412.41
2018-05-16T12:58:37.504Z,100406.09
2018-05-16T13:01:04.970Z,100406.03
2018-05-16T13:03:32.820Z,100401.23
2018-05-16T13:06:03.381Z,100407.42
2018-05-16T13:08:33.928Z,100404.41
2018-05-16T13:11:01.421Z,100403.89
2018-05-16T13:13:31.949Z,100401.12
2018-05-16T13:16:00.500Z,100408.80
2018-05-16T13:18:28.337Z,100405.80
2018-05-16T13:20:58.052Z,100409.11
2018-05-16T13:23:25.489Z,100406.86
2018-05-16T13:25:52.905Z,100406.47
2018-05-16T13:28:20.319Z,100410.75
2018-05-16T13:30:47.743Z,100412.84
2018-05-16T13:33:15.148Z,100414.47
2018-05-16T13:35:42.729Z,100409.31
2018-05-16T13:38:10.140Z,100417.35
2018-05-16T13:40:37.569Z,100413.06
2018-05-16T13:43:04.988Z,100406.33
2018-05-16T13:45:32.402Z,100404.06
2018-05-16T13:47:59.823Z,100407.09
2018-05-16T13:50:27.608Z,100401.59
2018-05-16T13:52:55.028Z,100397.05
2018-05-16T13:55:22.437Z,100401.23
2018-05-16T13:57:49.879Z,100400.72
2018-05-16T14:00:17.300Z,100405.28
2018-05-16T14:02:44.733Z,100401.98
2018-05-16T14:05:12.170Z,100393.16
2018-05-16T14:07:39.627Z,100387.45
2018-05-16T14:10:07.064Z,100385.59
2018-05-16T14:12:34.482Z,100381.31
2018-05-16T14:15:01.898Z,100369.04
2018-05-16T14:17:29.319Z,100367.84
2018-05-16T14:19:56.837Z,100356.91
2018-05-16T14:22:24.148Z,100356.24
2018-05-16T14:24:51.880Z,100338.67
2018-05-16T14:27:19.295Z,100335.13
2018-05-16T14:29:46.705Z,100337.69
2018-05-16T14:32:14.132Z,100341.89
2018-05-16T14:34:41.545Z,100350.38
2018-05-16T14:37:08.979Z,100363.13
2018-05-16T14:39:36.400Z,100361.59
2018-05-16T14:42:03.836Z,100352.16
2018-05-16T14:44:31.252Z,100349.97
2018-05-16T14:46:58.695Z,100339.40
2018-05-16T14:49:26.133Z,100343.73
2018-05-16T14:51:53.573Z,100340.70
2018-05-16T14:54:20.971Z,100376.30
2018-05-16T14:56:48.409Z,100379.61
2018-05-16T14:59:15.816Z,100372.95
2018-05-16T15:01:43.274Z,100363.73
2018-05-16T15:04:10.689Z,100355.63
2018-05-16T15:06:38.124Z,100348.92
2018-05-16T15:09:05.528Z,100346.73
2018-05-16T15:11:32.944Z,100341.52
2018-05-16T15:14:00.519Z,100332.91
2018-05-16T15:16:27.936Z,100318.58
2018-05-16T15:18:55.430Z,100324.81
2018-05-16T15:21:23.166Z,100323.91
2018-05-16T15:23:50.550Z,100325.80
2018-05-16T15:26:17.955Z,100318.53
2018-05-16T15:28:45.380Z,100334.63
2018-05-16T15:31:12.875Z,100321.91
2018-05-16T15:33:40.528Z,100320.92
2018-05-16T15:36:07.949Z,100310.72
2018-05-16T15:38:35.379Z,100320.99
2018-05-16T15:41:02.807Z,100325.72
2018-05-16T15:43:30.225Z,100330.14
2018-05-16T15:45:57.795Z,100336.59
2018-05-16T15:48:25.785Z,100352.55
2018-05-16T15:50:53.203Z,100352.98
2018-05-16T15:53:20.623Z,100367.90
2018-05-16T15:55:48.724Z,100382.59
2018-05-16T15:58:16.153Z,100411.66
2018-05-16T16:00:43.568Z,100419.84
2018-05-16T16:03:10.976Z,100435.28
2018-05-16T16:05:38.404Z,100455.73
2018-05-16T16:08:06.710Z,100420.64
2018-05-16T16:10:34.035Z,100403.21
2018-05-16T16:13:01.451Z,100419.20
2018-05-16T16:15:28.877Z,100426.82
2018-05-16T16:17:56.321Z,100412.49
2018-05-16T16:20:23.733Z,100396.17
2018-05-16T16:22:51.296Z,100381.83
2018-05-16T16:25:18.699Z,100379.03
2018-05-16T16:27:46.117Z,100389.36
2018-05-16T16:30:13.540Z,100404.45
2018-05-16T16:32:40.948Z,100404.03
2018-05-16T16:35:08.380Z,100396.24
2018-05-16T16:37:37.262Z,100398.83
2018-05-16T16:40:04.735Z,100394.39
2018-05-16T16:42:32.268Z,100383.07
2018-05-16T16:44:59.699Z,100366.58
2018-05-16T16:47:27.095Z,100365.56
2018-05-16T16:49:54.922Z,100390.42
2018-05-16T16:52:22.541Z,100424.02
2018-05-16T16:54:50.072Z,100439.66
2018-05-16T16:57:17.919Z,100432.05
2018-05-16T16:59:45.289Z,100450.27
2018-05-16T17:02:12.961Z,100451.83
2018-05-16T17:04:40.413Z,100451.95
2018-05-16T17:07:07.827Z,100431.02
2018-05-16T17:09:35.449Z,100402.10
2018-05-16T17:12:02.955Z,100383.33
2018-05-16T17:14:30.376Z,100378.72
2018-05-16T17:16:57.957Z,100345.34
2018-05-16T17:19:25.355Z,100359.86
2018-05-16T17:21:52.770Z,100373.56
2018-05-16T17:24:20.185Z,100380.11
2018-05-16T17:26:47.682Z,100387.46
2018-05-16T17:29:15.016Z,100390.17
2018-05-16T17:31:42.523Z,100409.63
2018-05-16T17:34:10.444Z,100423.48
2018-05-16T17:36:37.863Z,100433.97
2018-05-16T17:39:05.689Z,100414.09
2018-05-16T17:41:33.116Z,100407.94
2018-05-16T17:44:00.648Z,100401.77
2018-05-16T17:46:28.136Z,100446.35
2018-05-16T17:48:55.663Z,100458.95
2018-05-16T17:51:23.606Z,100458.77
2018-05-16T17:53:51.176Z,100472.03
2018-05-16T17:56:18.427Z,100472.75
2018-05-16T17:58:45.935Z,100472.42
2018-05-16T18:01:13.403Z,100498.59
2018-05-16T18:03:41.144Z,100509.35
2018-05-16T18:06:08.700Z,100500.61
2018-05-16T18:08:36.119Z,100513.96
2018-05-16T18:11:03.532Z,100520.42
2018-05-16T18:16:46.364Z,100511.18
2018-05-16T18:19:14.096Z,100524.05
2018-05-16T18:21:41.514Z,100508.41
2018-05-16T18:24:08.926Z,100495.10
2018-05-16T18:26:36.357Z,100506.62
2018-05-16T18:29:03.768Z,100536.36
2018-05-16T18:31:31.196Z,100525.78
2018-05-16T18:33:58.632Z,100523.33
2018-05-16T18:36:26.016Z,100541.80
2018-05-16T18:38:53.441Z,100538.78
2018-05-16T18:41:20.847Z,100533.55
2018-05-16T18:43:48.296Z,100541.06
2018-05-16T18:46:15.712Z,100524.71
2018-05-16T18:48:43.228Z,100470.59
2018-05-16T18:51:10.845Z,100470.68
2018-05-16T18:53:38.294Z,100431.21
2018-05-16T18:56:05.745Z,100445.28
2018-05-16T18:58:33.173Z,100479.45
2018-05-16T19:01:00.639Z,100496.47
2018-05-16T19:03:28.199Z,100499.19
2018-05-16T19:05:55.615Z,100500.09
2018-05-16T19:08:23.031Z,100495.94
2018-05-16T19:10:50.473Z,100506.58
2018-05-16T19:13:18.000Z,100504.80
2018-05-16T19:15:45.460Z,100508.51
2018-05-16T19:18:12.876Z,100502.27
2018-05-16T19:20:40.320Z,100489.19
2018-05-16T19:23:07.805Z,100487.46
2018-05-16T19:25:35.624Z,100488.39
2018-05-16T19:28:03.072Z,100489.44
2018-05-16T19:30:30.522Z,100499.83
2018-05-16T19:32:58.053Z,100518.30
2018-05-16T19:35:28.044Z,100518.09
2018-05-16T19:37:56.187Z,100521.42
2018-05-16T19:40:24.671Z,100525.98
2018-05-16T19:42:53.471Z,100536.44
2018-05-16T19:45:21.014Z,100536.94
2018-05-16T19:47:48.425Z,100543.23
2018-05-16T19:50:15.970Z,100551.71
2018-05-16T19:52:44.557Z,100564.47
2018-05-16T19:55:13.104Z,100564.40
2018-05-16T19:57:41.360Z,100569.43
2018-05-16T20:00:08.861Z,100576.88
2018-05-16T20:02:37.379Z,100579.02
2018-05-16T20:05:06.557Z,100585.93
2018-05-16T20:07:35.688Z,100592.63
2018-05-16T20:10:03.691Z,100597.98
2018-05-16T20:12:31.715Z,100600.36
2018-05-16T20:14:59.483Z,100600.06
2018-05-16T20:17:26.891Z,100605.92
2018-05-16T20:19:54.344Z,100607.12
2018-05-16T20:22:21.949Z,100610.03
2018-05-16T20:24:49.369Z,100610.43
2018-05-16T20:27:16.786Z,100604.06
2018-05-16T20:29:44.572Z,100612.67
2018-05-16T20:32:12.006Z,100610.35
2018-05-16T20:34:39.430Z,100613.85
2018-05-16T20:37:06.852Z,100611.19
2018-05-16T20:39:34.274Z,100607.61
2018-05-16T20:42:01.680Z,100609.06
2018-05-16T20:44:29.107Z,100610.63
2018-05-16T20:46:57.175Z,100614.38
2018-05-16T20:49:24.756Z,100609.97
2018-05-16T20:51:52.188Z,100612.54
2018-05-16T20:54:19.624Z,100614.70
2018-05-16T20:56:47.076Z,100613.41
2018-05-16T20:59:14.661Z,100617.58
2018-05-16T21:01:42.080Z,100617.77
2018-05-16T21:04:09.505Z,100628.58
2018-05-16T21:06:36.927Z,100624.30
2018-05-16T21:09:05.069Z,100621.94
2018-05-16T21:11:32.472Z,100621.96
2018-05-16T21:13:59.923Z,100627.59
2018-05-16T21:16:27.355Z,100628.77
2018-05-16T21:18:54.795Z,100629.17
2018-05-16T21:21:22.215Z,100629.03
2018-05-16T21:23:50.015Z,100632.66
2018-05-16T21:26:17.411Z,100640.19
2018-05-16T21:28:44.849Z,100640.82
2018-05-16T21:31:12.283Z,100647.10
2018-05-16T21:33:39.683Z,100646.78
2018-05-16T21:36:07.103Z,100646.81
2018-05-16T21:38:34.692Z,100640.19
2018-05-16T21:41:02.340Z,100647.22
2018-05-16T21:43:29.756Z,100644.66
2018-05-16T21:45:57.177Z,100643.21
2018-05-16T21:48:24.598Z,100642.38
2018-05-16T21:50:52.358Z,100649.98
2018-05-16T21:53:19.755Z,100649.60
2018-05-16T21:55:47.185Z,100647.41
2018-05-16T21:58:14.985Z,100649.52
2018-05-16T22:00:42.410Z,100652.13
2018-05-16T22:03:09.824Z,100655.78
2018-05-16T22:05:37.591Z,100654.39
2018-05-16T22:08:05.005Z,100661.09
2018-05-16T22:10:32.414Z,100659.38
2018-05-16T22:12:59.847Z,100656.88
2018-05-16T22:15:27.255Z,100663.04
2018-05-16T22:17:54.666Z,100658.34
2018-05-16T22:20:22.099Z,100656.05
2018-05-16T22:22:49.529Z,100666.20
2018-05-16T22:25:16.919Z,100662.85
2018-05-16T22:27:44.336Z,100670.60
2018-05-16T22:30:11.179Z,100669.22
2018-05-16T22:32:44.260Z,100677.22
2018-05-16T22:35:17.322Z,100675.61
2018-05-16T22:37:50.453Z,100679.42
2018-05-16T22:40:23.517Z,100676.80
2018-05-16T22:42:50.382Z,100681.03
2018-05-16T22:45:19.691Z,100679.79
2018-05-16T22:47:47.282Z,100674.06
2018-05-16T22:50:14.685Z,100672.61
2018-05-16T22:52:42.104Z,100673.92
2018-05-16T22:55:09.673Z,100673.69
2018-05-16T22:57:37.081Z,100680.66
2018-05-16T23:00:04.495Z,100685.69
2018-05-16T23:02:31.924Z,100685.66
2018-05-16T23:04:59.327Z,100687.07
2018-05-16T23:07:26.740Z,100685.28
2018-05-16T23:09:54.328Z,100688.05
2018-05-16T23:12:21.728Z,100684.91
2018-05-16T23:14:49.140Z,100685.81
2018-05-16T23:17:16.568Z,100690.05
2018-05-16T23:19:43.985Z,100687.41
2018-05-16T23:22:14.287Z,100688.97
2018-05-16T23:24:41.709Z,100692.98
2018-05-16T23:27:09.124Z,100694.51
2018-05-16T23:29:36.548Z,100701.18
2018-05-16T23:32:03.977Z,100700.12
2018-05-16T23:34:31.381Z,100702.67
2018-05-16T23:36:58.808Z,100712.48
2018-05-16T23:39:26.256Z,100714.50
2018-05-16T23:41:53.664Z,100710.72
2018-05-16T23:44:21.092Z,100713.48
2018-05-16T23:46:48.497Z,100708.61
2018-05-16T23:49:15.900Z,100714.58
2018-05-16T23:51:43.340Z,100715.27
2018-05-16T23:54:10.760Z,100727.77
2018-05-16T23:56:38.179Z,100723.62
2018-05-16T23:59:05.596Z,100729.71
